createdAt,value
2018-09-15T00:00:00.135Z,23.92
2018-09-15T00:02:29.664Z,24.46
2018-09-15T00:04:59.870Z,24.62
2018-09-15T00:07:29.825Z,24.59
2018-09-15T00:09:59.205Z,24.62
2018-09-15T00:12:29.893Z,24.61
2018-09-15T00:14:59.432Z,24.64
2018-09-15T00:17:29.014Z,24.65
2018-09-15T00:19:58.460Z,24.61
2018-09-15T00:22:27.881Z,24.72
2018-09-15T00:24:57.627Z,24.72
2018-09-15T00:27:27.071Z,24.71
2018-09-15T00:29:56.447Z,24.64
2018-09-15T00:32:25.847Z,24.37
2018-09-15T00:34:55.531Z,24.26
2018-09-15T00:37:25.196Z,24.22
2018-09-15T00:39:54.600Z,24.20
2018-09-15T00:42:24.105Z,24.22
2018-09-15T00:44:53.548Z,24.25
2018-09-15T00:47:22.937Z,24.37
2018-09-15T00:49:52.675Z,24.19
2018-09-15T00:52:22.075Z,24.15
2018-09-15T00:54:51.479Z,24.12
2018-09-15T00:57:21.239Z,24.21
2018-09-15T00:59:50.718Z,24.17
2018-09-15T01:02:22.246Z,23.79
2018-09-15T01:04:51.605Z,23.63
2018-09-15T01:07:21.012Z,23.52
2018-09-15T01:09:50.790Z,23.36
2018-09-15T01:12:20.165Z,23.29
2018-09-15T01:14:49.678Z,22.96
2018-09-15T01:17:19.138Z,23.33
2018-09-15T01:19:48.651Z,23.34
2018-09-15T01:22:18.557Z,23.32
2018-09-15T01:24:48.002Z,23.24
2018-09-15T01:27:17.439Z,23.12
2018-09-15T01:29:46.771Z,23.15
2018-09-15T01:32:16.295Z,23.18
2018-09-15T01:34:45.994Z,22.88
2018-09-15T01:37:16.186Z,22.88
2018-09-15T01:39:46.244Z,23.09
2018-09-15T01:42:15.650Z,22.96
2018-09-15T01:44:45.013Z,22.75
2018-09-15T01:47:14.966Z,22.79
2018-09-15T01:49:44.414Z,22.79
2018-09-15T01:52:14.610Z,23.07
2018-09-15T01:54:44.349Z,23.14
2018-09-15T01:57:14.454Z,22.81
2018-09-15T01:59:43.893Z,22.77
2018-09-15T02:02:13.334Z,22.67
2018-09-15T02:04:42.706Z,22.58
2018-09-15T02:07:12.649Z,22.58
2018-09-15T02:09:42.990Z,22.49
2018-09-15T02:12:13.195Z,22.71
2018-09-15T02:14:42.572Z,22.84
2018-09-15T02:17:12.562Z,22.70
2018-09-15T02:19:43.651Z,22.65
2018-09-15T02:22:13.072Z,23.04
2018-09-15T02:24:43.054Z,22.91
2018-09-15T02:27:12.783Z,22.75
2018-09-15T02:29:42.139Z,22.74
2018-09-15T02:32:15.676Z,22.86
2018-09-15T02:34:46.615Z,22.80
2018-09-15T02:37:16.629Z,22.76
2018-09-15T02:39:47.930Z,22.81
2018-09-15T02:42:21.330Z,22.64
2018-09-15T02:44:51.459Z,22.61
2018-09-15T02:47:20.836Z,22.53
2018-09-15T02:49:52.452Z,22.53
2018-09-15T02:52:23.409Z,22.52
2018-09-15T02:54:55.708Z,22.54
2018-09-15T02:57:31.399Z,22.64
2018-09-15T03:00:02.423Z,22.65
2018-09-15T03:02:33.890Z,22.61
2018-09-15T03:05:04.726Z,22.76
2018-09-15T03:07:35.483Z,22.73
2018-09-15T03:10:06.350Z,22.93
2018-09-15T03:12:38.740Z,23.12
2018-09-15T03:15:08.382Z,23.04
2018-09-15T03:17:40.011Z,23.06
2018-09-15T03:20:12.207Z,23.14
2018-09-15T03:22:43.452Z,23.13
2018-09-15T03:25:15.094Z,23.00
2018-09-15T03:27:46.955Z,23.06
2018-09-15T03:30:16.947Z,23.09
2018-09-15T03:32:46.406Z,22.93
2018-09-15T03:35:19.670Z,23.01
2018-09-15T03:37:51.775Z,23.08
2018-09-15T03:40:22.067Z,22.72
2018-09-15T03:42:52.736Z,22.70
2018-09-15T03:45:26.256Z,22.73
2018-09-15T03:47:56.562Z,22.85
2018-09-15T03:50:26.005Z,22.70
2018-09-15T03:52:55.386Z,22.56
2018-09-15T03:55:24.865Z,22.38
2018-09-15T03:57:55.074Z,22.17
2018-09-15T04:00:27.034Z,22.12
2018-09-15T04:02:56.502Z,22.14
2018-09-15T04:05:25.880Z,21.88
2018-09-15T04:07:55.304Z,21.85
2018-09-15T04:10:26.101Z,21.71
2018-09-15T04:12:56.353Z,21.47
2018-09-15T04:15:26.563Z,21.27
2018-09-15T04:17:56.923Z,21.16
2018-09-15T04:20:26.398Z,21.31
2018-09-15T04:22:55.792Z,21.23
2018-09-15T04:25:26.555Z,21.07
2018-09-15T04:27:55.998Z,20.95
2018-09-15T04:30:25.768Z,21.01
2018-09-15T04:32:55.714Z,21.00
2018-09-15T04:35:25.123Z,21.23
2018-09-15T04:37:55.562Z,21.31
2018-09-15T04:40:25.836Z,21.31
2018-09-15T04:42:56.730Z,21.10
2018-09-15T04:45:27.286Z,21.07
2018-09-15T04:47:57.587Z,20.94
2018-09-15T04:50:27.307Z,21.04
2018-09-15T04:52:57.652Z,20.85
2018-09-15T04:55:27.627Z,20.95
2018-09-15T04:57:56.925Z,20.70
2018-09-15T05:00:29.571Z,20.75
2018-09-15T05:02:59.998Z,20.82
2018-09-15T05:05:29.382Z,20.90
2018-09-15T05:08:01.597Z,20.82
2018-09-15T05:10:32.492Z,20.74
2018-09-15T05:13:02.846Z,20.69
2018-09-15T05:15:33.445Z,20.61
2018-09-15T05:18:02.814Z,20.66
2018-09-15T05:20:33.384Z,20.62
2018-09-15T05:23:03.055Z,20.61
2018-09-15T05:25:32.536Z,20.89
2018-09-15T05:28:01.924Z,21.41
2018-09-15T05:30:31.318Z,21.64
2018-09-15T05:33:00.710Z,21.77
2018-09-15T05:35:30.464Z,22.13
2018-09-15T05:37:59.850Z,22.41
2018-09-15T05:40:29.274Z,22.83
2018-09-15T05:42:59.046Z,23.37
2018-09-15T05:45:28.462Z,23.58
2018-09-15T05:47:58.093Z,23.82
2018-09-15T05:50:27.597Z,23.76
2018-09-15T05:52:57.056Z,23.72
2018-09-15T05:55:26.822Z,23.84
2018-09-15T05:57:56.227Z,24.32
2018-09-15T06:00:26.028Z,24.89
2018-09-15T06:02:55.712Z,25.50
2018-09-15T06:05:25.042Z,26.27
2018-09-15T06:07:54.750Z,26.45
2018-09-15T06:10:24.236Z,26.00
2018-09-15T06:12:54.235Z,25.53
2018-09-15T06:15:27.055Z,25.32
2018-09-15T06:17:56.507Z,25.11
2018-09-15T06:20:27.205Z,24.95
2018-09-15T06:22:59.190Z,24.59
2018-09-15T06:25:28.594Z,24.35
2018-09-15T06:27:58.043Z,24.10
2018-09-15T06:30:27.434Z,23.80
2018-09-15T06:32:57.763Z,23.86
2018-09-15T06:35:28.900Z,24.07
2018-09-15T06:37:59.120Z,24.38
2018-09-15T06:40:28.944Z,24.54
2018-09-15T06:42:58.428Z,24.69
2018-09-15T06:45:30.682Z,25.37
2018-09-15T06:48:04.250Z,26.38
2018-09-15T06:50:34.666Z,26.66
2018-09-15T06:53:07.461Z,27.17
2018-09-15T06:55:37.606Z,27.40
2018-09-15T06:58:11.697Z,27.60
2018-09-15T07:00:41.121Z,27.74
2018-09-15T07:03:11.565Z,28.12
2018-09-15T07:05:48.366Z,28.16
2018-09-15T07:08:19.100Z,28.51
2018-09-15T07:10:49.483Z,28.66
2018-09-15T07:13:20.513Z,28.78
2018-09-15T07:15:49.995Z,29.00
2018-09-15T07:18:21.967Z,29.04
2018-09-15T07:20:52.135Z,29.08
2018-09-15T07:23:22.524Z,29.01
2018-09-15T07:25:51.929Z,29.37
2018-09-15T07:28:23.546Z,29.01
2018-09-15T07:30:54.375Z,28.86
2018-09-15T07:33:24.718Z,29.09
2018-09-15T07:35:56.019Z,28.89
2018-09-15T07:38:26.752Z,29.16
2018-09-15T07:41:00.189Z,29.62
2018-09-15T07:46:12.071Z,29.83
2018-09-15T07:48:43.590Z,29.68
2018-09-15T07:51:15.154Z,29.53
2018-09-15T07:53:46.182Z,29.70
2018-09-15T07:56:22.455Z,29.82
2018-09-15T07:58:54.822Z,29.19
2018-09-15T08:01:38.585Z,28.92
2018-09-15T08:04:09.210Z,29.50
2018-09-15T08:06:39.494Z,30.07
2018-09-15T08:09:13.295Z,29.70
2018-09-15T08:11:44.532Z,29.56
2018-09-15T08:14:16.060Z,29.51
2018-09-15T08:16:47.673Z,29.46
2018-09-15T08:19:23.403Z,28.76
2018-09-15T08:21:54.736Z,29.46
2018-09-15T08:24:30.435Z,29.69
2018-09-15T08:27:02.401Z,29.88
2018-09-15T08:29:34.082Z,29.77
2018-09-15T08:32:06.260Z,29.94
2018-09-15T08:34:38.372Z,30.08
2018-09-15T08:37:09.911Z,30.02
2018-09-15T08:39:41.497Z,30.27
2018-09-15T08:42:12.746Z,30.65
2018-09-15T08:44:44.202Z,30.90
2018-09-15T08:47:15.935Z,30.63
2018-09-15T08:49:48.085Z,30.62
2018-09-15T08:52:19.791Z,30.84
2018-09-15T08:54:51.036Z,30.07
2018-09-15T08:57:25.867Z,29.66
2018-09-15T08:59:57.108Z,29.61
2018-09-15T09:02:30.275Z,30.06
2018-09-15T09:05:03.619Z,29.95
2018-09-15T09:07:34.700Z,29.65
2018-09-15T09:10:07.854Z,29.61
2018-09-15T09:12:39.153Z,29.28
2018-09-15T09:15:14.865Z,28.94
2018-09-15T09:17:46.450Z,28.74
2018-09-15T09:20:21.030Z,28.84
2018-09-15T09:22:52.314Z,29.26
2018-09-15T09:25:23.539Z,29.40
2018-09-15T09:27:56.629Z,29.47
2018-09-15T09:30:31.403Z,29.95
2018-09-15T09:33:02.561Z,30.45
2018-09-15T09:35:34.431Z,30.98
2018-09-15T09:38:06.902Z,31.33
2018-09-15T09:40:38.088Z,31.41
2018-09-15T09:43:12.881Z,31.55
2018-09-15T09:45:45.046Z,31.33
2018-09-15T09:48:16.364Z,31.47
2018-09-15T09:50:48.282Z,31.28
2018-09-15T09:53:19.508Z,30.96
2018-09-15T09:55:51.239Z,30.85
2018-09-15T09:58:22.773Z,30.77
2018-09-15T10:01:01.960Z,30.88
2018-09-15T10:03:33.511Z,31.06
2018-09-15T10:06:04.826Z,31.29
2018-09-15T10:08:36.047Z,31.32
2018-09-15T10:11:08.791Z,31.33
2018-09-15T10:13:41.675Z,31.35
2018-09-15T10:16:13.013Z,31.24
2018-09-15T10:18:44.128Z,31.39
2018-09-15T10:21:15.627Z,31.78
2018-09-15T10:23:47.539Z,32.45
2018-09-15T10:26:20.104Z,32.42
2018-09-15T10:28:52.094Z,32.41
2018-09-15T10:31:23.404Z,32.55
2018-09-15T10:33:54.930Z,32.82
2018-09-15T10:36:26.326Z,33.07
2018-09-15T10:38:59.642Z,33.29
2018-09-15T10:41:33.439Z,33.13
2018-09-15T10:44:04.625Z,33.15
2018-09-15T10:46:38.357Z,33.26
2018-09-15T10:49:10.835Z,32.87
2018-09-15T10:51:42.477Z,32.60
2018-09-15T10:54:13.654Z,32.65
2018-09-15T10:56:44.896Z,32.39
2018-09-15T10:59:16.321Z,32.54
2018-09-15T11:01:48.513Z,32.62
2018-09-15T11:04:27.224Z,32.51
2018-09-15T11:07:00.449Z,32.11
2018-09-15T11:09:32.329Z,31.93
2018-09-15T11:12:08.544Z,32.09
2018-09-15T11:14:48.243Z,32.28
2018-09-15T11:17:22.227Z,32.02
2018-09-15T11:19:54.839Z,31.87
2018-09-15T11:22:33.367Z,32.03
2018-09-15T11:25:07.066Z,32.60
2018-09-15T11:27:43.307Z,32.63
2018-09-15T11:30:16.437Z,32.58
2018-09-15T11:32:49.349Z,32.72
2018-09-15T11:35:22.123Z,33.20
2018-09-15T11:37:54.115Z,33.15
2018-09-15T11:40:27.042Z,33.21
2018-09-15T11:42:59.656Z,32.35
2018-09-15T11:45:33.860Z,31.28
2018-09-15T11:48:05.376Z,30.21
2018-09-15T11:50:39.010Z,30.16
2018-09-15T11:53:12.202Z,30.67
2018-09-15T11:55:44.615Z,30.80
2018-09-15T11:58:16.082Z,31.14
2018-09-15T12:00:52.320Z,31.42
2018-09-15T12:03:26.395Z,31.50
2018-09-15T12:05:58.422Z,31.69
2018-09-15T12:08:30.851Z,31.94
2018-09-15T12:11:02.061Z,32.18
2018-09-15T12:13:33.289Z,32.24
2018-09-15T12:16:05.282Z,32.11
2018-09-15T12:18:36.464Z,31.68
2018-09-15T12:21:07.948Z,31.71
2018-09-15T12:23:39.574Z,32.12
2018-09-15T12:26:10.725Z,32.51
2018-09-15T12:28:43.781Z,32.76
2018-09-15T12:31:15.015Z,32.99
2018-09-15T12:33:48.259Z,32.79
2018-09-15T12:36:19.436Z,32.85
2018-09-15T12:38:50.547Z,33.61
2018-09-15T12:41:22.802Z,33.72
2018-09-15T12:43:54.634Z,33.67
2018-09-15T12:46:26.622Z,33.61
2018-09-15T12:48:57.975Z,33.78
2018-09-15T12:51:29.350Z,33.73
2018-09-15T12:54:00.941Z,33.89
2018-09-15T12:56:32.487Z,33.59
2018-09-15T12:59:08.161Z,33.63
2018-09-15T13:01:40.323Z,33.44
2018-09-15T13:04:12.308Z,33.47
2018-09-15T13:06:43.493Z,33.69
2018-09-15T13:09:14.700Z,33.51
2018-09-15T13:11:47.585Z,33.59
2018-09-15T13:14:21.634Z,33.25
2018-09-15T13:16:55.084Z,33.25
2018-09-15T13:19:30.610Z,33.49
2018-09-15T13:22:02.760Z,33.89
2018-09-15T13:24:34.720Z,33.91
2018-09-15T13:27:06.818Z,33.87
2018-09-15T13:29:38.608Z,33.85
2018-09-15T13:32:11.751Z,33.94
2018-09-15T13:34:44.273Z,33.90
2018-09-15T13:37:18.558Z,33.81
2018-09-15T13:39:50.720Z,33.47
2018-09-15T13:42:21.847Z,33.34
2018-09-15T13:44:53.049Z,33.25
2018-09-15T13:47:26.342Z,33.31
2018-09-15T13:49:58.323Z,33.19
2018-09-15T13:52:33.529Z,33.10
2018-09-15T13:55:06.613Z,32.78
2018-09-15T13:57:38.506Z,32.63
2018-09-15T14:00:12.801Z,32.34
2018-09-15T14:02:44.915Z,32.47
2018-09-15T14:05:17.088Z,32.60
2018-09-15T14:07:51.508Z,32.38
2018-09-15T14:10:23.623Z,32.79
2018-09-15T14:12:55.805Z,33.27
2018-09-15T14:15:28.615Z,33.35
2018-09-15T14:18:01.303Z,33.23
2018-09-15T14:20:37.262Z,32.79
2018-09-15T14:23:08.414Z,32.77
2018-09-15T14:25:39.665Z,32.69
2018-09-15T14:28:11.467Z,32.77
2018-09-15T14:30:43.677Z,32.75
2018-09-15T14:33:15.240Z,32.69
2018-09-15T14:35:47.725Z,32.42
2018-09-15T14:38:18.867Z,32.39
2018-09-15T14:40:51.386Z,32.50
2018-09-15T14:43:26.000Z,32.36
2018-09-15T14:45:58.060Z,32.58
2018-09-15T14:48:31.082Z,32.70
2018-09-15T14:51:02.974Z,32.76
2018-09-15T14:53:35.192Z,33.17
2018-09-15T14:56:06.427Z,33.48
2018-09-15T14:58:40.291Z,33.86
2018-09-15T15:01:12.479Z,34.52
2018-09-15T15:03:44.461Z,34.92
2018-09-15T15:06:17.436Z,35.17
2018-09-15T15:08:50.446Z,35.28
2018-09-15T15:11:22.375Z,34.98
2018-09-15T15:13:54.362Z,34.76
2018-09-15T15:16:25.609Z,34.90
2018-09-15T15:18:58.363Z,34.93
2018-09-15T15:21:36.038Z,35.41
2018-09-15T15:24:12.034Z,35.35
2018-09-15T15:26:43.209Z,35.44
2018-09-15T15:29:16.414Z,35.64
2018-09-15T15:31:48.458Z,35.28
2018-09-15T15:34:21.663Z,35.03
2018-09-15T15:36:56.529Z,34.86
2018-09-15T15:39:28.603Z,34.91
2018-09-15T15:42:01.501Z,34.57
2018-09-15T15:44:34.675Z,33.96
2018-09-15T15:47:06.006Z,33.59
2018-09-15T15:49:42.256Z,33.26
2018-09-15T15:52:14.281Z,32.86
2018-09-15T15:54:45.587Z,32.77
2018-09-15T15:57:20.843Z,33.01
2018-09-15T15:59:52.983Z,33.28
2018-09-15T16:02:26.739Z,33.41
2018-09-15T16:04:59.215Z,33.17
2018-09-15T16:07:31.678Z,32.82
2018-09-15T16:10:03.117Z,32.48
2018-09-15T16:12:34.329Z,32.28
2018-09-15T16:15:06.161Z,32.06
2018-09-15T16:17:37.839Z,31.71
2018-09-15T16:20:11.129Z,31.56
2018-09-15T16:22:42.913Z,31.33
2018-09-15T16:25:25.128Z,31.16
2018-09-15T16:27:59.203Z,31.04
2018-09-15T16:30:34.497Z,30.80
2018-09-15T16:33:08.107Z,30.76
2018-09-15T16:35:43.086Z,30.77
2018-09-15T16:38:15.612Z,30.74
2018-09-15T16:40:48.956Z,30.73
2018-09-15T16:43:20.499Z,30.94
2018-09-15T16:45:51.632Z,30.99
2018-09-15T16:48:23.656Z,30.93
2018-09-15T16:50:55.895Z,30.78
2018-09-15T16:53:28.065Z,30.84
2018-09-15T16:55:59.302Z,30.80
2018-09-15T16:58:31.166Z,30.73
2018-09-15T17:01:03.471Z,30.92
2018-09-15T17:03:34.660Z,30.58
2018-09-15T17:06:06.834Z,30.38
2018-09-15T17:08:38.090Z,30.13
2018-09-15T17:11:09.524Z,29.98
2018-09-15T17:16:14.893Z,29.59
2018-09-15T17:18:46.098Z,29.77
2018-09-15T17:21:17.295Z,29.31
2018-09-15T17:23:49.774Z,29.48
2018-09-15T17:26:22.423Z,29.33
2018-09-15T17:28:56.591Z,29.37
2018-09-15T17:34:05.861Z,29.04
2018-09-15T17:36:38.113Z,29.10
2018-09-15T17:39:12.394Z,29.02
2018-09-15T17:41:44.519Z,28.83
2018-09-15T17:44:15.684Z,28.42
2018-09-15T17:46:48.229Z,28.59
2018-09-15T17:49:19.514Z,28.46
2018-09-15T17:51:53.697Z,28.22
2018-09-15T17:54:25.677Z,28.02
2018-09-15T17:56:56.350Z,27.89
2018-09-15T17:59:28.811Z,27.66
2018-09-15T18:02:03.295Z,27.46
2018-09-15T18:04:38.379Z,27.46
2018-09-15T18:07:11.514Z,27.30
2018-09-15T18:09:52.743Z,27.20
2018-09-15T18:12:24.366Z,26.96
2018-09-15T18:14:56.411Z,26.87
2018-09-15T18:17:28.718Z,26.76
2018-09-15T18:20:02.638Z,26.61
2018-09-15T18:22:37.099Z,26.51
2018-09-15T18:25:08.264Z,26.14
2018-09-15T18:27:41.766Z,26.24
2018-09-15T18:30:15.735Z,26.06
2018-09-15T18:32:49.132Z,25.45
2018-09-15T18:35:20.315Z,25.82
2018-09-15T18:37:51.509Z,25.79
2018-09-15T18:40:23.618Z,25.74
2018-09-15T18:42:54.930Z,25.54
2018-09-15T18:45:27.298Z,25.53
2018-09-15T18:47:58.838Z,25.39
2018-09-15T18:50:29.997Z,25.54
2018-09-15T18:53:05.298Z,25.47
2018-09-15T18:55:36.683Z,25.40
2018-09-15T18:58:08.729Z,25.32
2018-09-15T19:00:43.582Z,25.24
2018-09-15T19:03:17.386Z,25.14
2018-09-15T19:05:49.360Z,25.12
2018-09-15T19:08:21.064Z,25.15
2018-09-15T19:10:51.904Z,25.02
2018-09-15T19:13:24.835Z,24.89
2018-09-15T19:15:57.920Z,24.82
2018-09-15T19:18:29.971Z,24.79
2018-09-15T19:21:02.757Z,24.79
2018-09-15T19:23:38.617Z,24.83
2018-09-15T19:26:09.851Z,24.86
2018-09-15T19:28:43.502Z,24.76
2018-09-15T19:31:26.544Z,24.47
2018-09-15T19:33:59.395Z,24.61
2018-09-15T19:36:29.732Z,24.51
2018-09-15T19:39:02.845Z,24.35
2018-09-15T19:41:36.685Z,24.29
2018-09-15T19:44:08.884Z,24.26
2018-09-15T19:46:40.366Z,24.23
2018-09-15T19:49:11.901Z,24.21
2018-09-15T19:51:45.953Z,24.23
2018-09-15T19:54:17.201Z,24.17
2018-09-15T19:56:48.401Z,24.26
2018-09-15T19:59:22.488Z,24.33
2018-09-15T20:01:57.863Z,23.83
2018-09-15T20:04:30.599Z,24.19
2018-09-15T20:07:03.866Z,24.14
2018-09-15T20:09:36.682Z,24.01
2018-09-15T20:12:07.889Z,23.86
2018-09-15T20:14:38.935Z,24.01
2018-09-15T20:17:08.595Z,24.07
2018-09-15T20:19:40.503Z,24.03
2018-09-15T20:22:12.784Z,23.88
2018-09-15T20:24:44.104Z,23.98
2018-09-15T20:27:14.671Z,24.01
2018-09-15T20:29:46.504Z,24.12
2018-09-15T20:32:19.236Z,24.22
2018-09-15T20:34:50.425Z,24.15
2018-09-15T20:37:22.484Z,24.23
2018-09-15T20:39:53.523Z,24.26
2018-09-15T20:42:25.061Z,24.13
2018-09-15T20:44:58.285Z,23.93
2018-09-15T20:47:28.814Z,24.01
2018-09-15T20:49:59.592Z,23.82
2018-09-15T20:52:46.312Z,23.96
2018-09-15T20:55:17.883Z,24.00
2018-09-15T20:57:49.563Z,24.01
2018-09-15T21:00:25.198Z,23.82
2018-09-15T21:02:56.199Z,23.64
2018-09-15T21:05:28.371Z,23.61
2018-09-15T21:07:59.747Z,23.66
2018-09-15T21:10:33.733Z,23.46
2018-09-15T21:13:05.212Z,23.47
2018-09-15T21:15:35.330Z,23.18
2018-09-15T21:18:07.125Z,23.28
2018-09-15T21:20:38.625Z,23.34
2018-09-15T21:23:11.425Z,23.36
2018-09-15T21:25:45.460Z,23.33
2018-09-15T21:28:17.586Z,23.28
2018-09-15T21:30:48.838Z,23.17
2018-09-15T21:33:19.216Z,23.06
2018-09-15T21:35:50.042Z,22.85
2018-09-15T21:38:21.602Z,22.81
2018-09-15T21:40:54.068Z,22.75
2018-09-15T21:43:25.695Z,22.85
2018-09-15T21:45:56.015Z,22.99
2018-09-15T21:48:26.375Z,22.82
2018-09-15T21:50:56.774Z,22.84
2018-09-15T21:53:27.135Z,22.90
2018-09-15T21:55:58.076Z,22.96
2018-09-15T21:58:29.516Z,22.97
2018-09-15T22:01:05.966Z,23.04
2018-09-15T22:03:42.416Z,22.73
2018-09-15T22:06:15.334Z,22.92
2018-09-15T22:08:46.209Z,22.92
2018-09-15T22:11:16.642Z,22.87
2018-09-15T22:13:48.643Z,22.77
2018-09-15T22:16:20.269Z,22.82
2018-09-15T22:18:50.579Z,22.88
2018-09-15T22:21:24.098Z,23.00
2018-09-15T22:23:54.999Z,22.91
2018-09-15T22:26:28.441Z,22.98
2018-09-15T22:29:01.413Z,23.05
2018-09-15T22:31:32.906Z,22.63
2018-09-15T22:34:04.323Z,22.85
2018-09-15T22:36:36.086Z,22.77
2018-09-15T22:39:08.834Z,22.70
2018-09-15T22:41:39.651Z,22.62
2018-09-15T22:44:11.930Z,22.71
2018-09-15T22:46:45.974Z,22.64
2018-09-15T22:49:17.471Z,22.54
2018-09-15T22:51:47.818Z,22.58
2018-09-15T22:54:19.666Z,22.42
2018-09-15T22:56:51.677Z,22.30
2018-09-15T22:59:24.113Z,22.38
2018-09-15T23:01:55.384Z,22.53
2018-09-15T23:04:25.703Z,22.58
2018-09-15T23:06:57.755Z,22.35
2018-09-15T23:09:28.036Z,22.36
2018-09-15T23:12:00.587Z,22.22
2018-09-15T23:14:31.671Z,22.12
2018-09-15T23:17:02.047Z,22.12
2018-09-15T23:19:33.053Z,22.21
2018-09-15T23:22:04.991Z,22.19
2018-09-15T23:24:35.505Z,22.00
2018-09-15T23:27:06.055Z,21.98
2018-09-15T23:29:36.458Z,21.94
2018-09-15T23:32:08.545Z,21.72
2018-09-15T23:34:39.719Z,21.70
2018-09-15T23:37:11.228Z,21.50
2018-09-15T23:39:42.512Z,21.63
2018-09-15T23:42:14.626Z,21.73
2018-09-15T23:44:46.497Z,21.58
2018-09-15T23:47:18.473Z,21.55
2018-09-15T23:49:51.999Z,21.59
2018-09-15T23:52:24.350Z,21.57
2018-09-15T23:54:59.450Z,21.60
2018-09-15T23:57:33.795Z,21.57
